Greenport, NY

5:38 PM EDT on October 20, 2014 (GMT -0400)
Greenport School | Change Station
CLOSE
Current Station
Personal Weather Station
Location: Greenport, NY
Elevation: 10 ft
Nearby Weather Stations

Elev 10 ft 41.10 °N, 72.37 °W | Updated 2 seconds ago

Partly Cloudy
Partly Cloudy
57.2 °F
Feels Like 57.2 °F
N
11.9
Wind Variable Wind from SW
Gusts 12.3 mph

Today
High -- | Low -- °F
--% Chance of Precip.
Yesterday
High -- | Low -- °F
Precip. -- in
7:06 AM 6:01 PM
Waning Crescent, 9% visible
Pressure 30.03 in
Visibility 10.0 miles
Clouds Clear
Dew Point 44 °F
Humidity 61%
Rainfall 0.00 in
Snow Depth Not available.
UV 1 out of 12
Pollen .90 out of 12
Air Quality Not available.
Flu Activity Sporadic
METAR KHTO 202050Z 21010KT 10SM SKC 14/07 A3003

More Conditions Fewer Conditions

Pressure 30.03 in
Visibility 10.0 miles
Clouds Clear
Dew Point 44 °F
Humidity 61%
Rainfall 0.00 in
Snow Depth Not available.
UV 1 out of 12
Pollen .90 out of 12
Air Quality Not available.
Flu Activity Sporadic
METAR KHTO 202050Z 21010KT 10SM SKC 14/07 A3003

More Conditions Fewer Conditions

10-Day Weather Forecast

Almanac

Astronomy

Oct. 20, 2014 Rise Set
Actual Time 7:06 AM EDT 6:01 PM EDT
Civil Twilight 6:38 AM EDT 6:29 PM EDT
Nautical Twilight 6:06 AM EDT 7:01 PM EDT
Astronomical Twilight 5:34 AM EDT 7:33 PM EDT
Moon 3:50 AM EDT 4:23 PM EDT
Length of Visible Light 11h 50m
Length of Day
10h 54m
Waning Crescent, 9% of the Moon is Illuminated
Today
Waning Crescent
Oct 23
New
Oct 30
First Quarter
Nov 6
Full
Nov 14
Last Quarter

Today's Extremes

State Highs State Lows

Community

WunderPhotos

Upload Photos

1,763,525 photos uploaded!

WunderBlogs® & News

Nearby

Air Quality

  Air Quality AQ Index Pollutant
Yesterday Good
OZONE
Monday Good
PM2.5
Tuesday Good
PM2.5

Snow Depth

Station Depth Elevation
No new snow has been reported.

Earthquake Activity

City Distance Mag. Time & Date
No recent earthquake activity has been reported nearby.
Minimum magnitude displayed is 2.5.

Coastal Water Temperatures

Place Temperature
New London, CT 64.0 °F

Nearby Weather Stations